createdAt,value
2023-01-09T00:00:09.991Z,98173.17
2023-01-09T00:03:32.779Z,98166.65
2023-01-09T00:06:35.745Z,98161.16
2023-01-09T00:09:38.572Z,98152.20
2023-01-09T00:12:41.462Z,98149.42
2023-01-09T00:15:44.303Z,98154.68
2023-01-09T00:18:47.231Z,98143.77
2023-01-09T00:21:49.980Z,98135.42
2023-01-09T00:24:52.771Z,98130.09
2023-01-09T00:27:55.530Z,98132.42
2023-01-09T00:31:00.603Z,98122.77
2023-01-09T00:34:07.363Z,98114.45
2023-01-09T00:37:12.078Z,98109.89
2023-01-09T00:40:16.830Z,98113.98
2023-01-09T00:43:22.329Z,98111.44
2023-01-09T00:46:30.727Z,98106.66
2023-01-09T00:49:38.010Z,98118.24
2023-01-09T00:52:41.281Z,98119.42
2023-01-09T00:55:44.261Z,98126.73
2023-01-09T00:58:48.219Z,98126.04
2023-01-09T01:01:51.462Z,98124.52
2023-01-09T01:05:13.442Z,98118.85
2023-01-09T01:08:19.217Z,98117.50
2023-01-09T01:11:22.810Z,98115.42
2023-01-09T01:14:27.103Z,98108.48
2023-01-09T01:17:29.897Z,98109.40
2023-01-09T01:20:32.753Z,98103.69
2023-01-09T01:23:37.136Z,98105.69
2023-01-09T01:26:39.961Z,98109.80
2023-01-09T01:29:42.836Z,98102.09
2023-01-09T01:32:46.182Z,98100.48
2023-01-09T01:35:50.018Z,98092.65
2023-01-09T01:38:53.232Z,98088.94
2023-01-09T01:41:56.068Z,98086.81
2023-01-09T01:45:00.877Z,98089.17
2023-01-09T01:48:14.012Z,98088.11
2023-01-09T01:51:19.700Z,98087.11
2023-01-09T01:54:26.522Z,98087.14
2023-01-09T01:57:31.081Z,98088.23
2023-01-09T02:00:41.947Z,98088.36
2023-01-09T02:03:45.812Z,98082.95
2023-01-09T02:06:52.227Z,98078.14
2023-01-09T02:09:55.521Z,98083.21
2023-01-09T02:12:59.213Z,98083.04
2023-01-09T02:16:11.105Z,98079.57
2023-01-09T02:19:36.019Z,98073.54
2023-01-09T02:23:00.505Z,98068.91
2023-01-09T02:26:15.250Z,98067.98
2023-01-09T02:29:56.599Z,98060.43
2023-01-09T02:33:39.586Z,98050.11
2023-01-09T02:36:59.227Z,98051.84
2023-01-09T02:40:19.522Z,98051.25
2023-01-09T02:43:23.632Z,98046.95
2023-01-09T02:46:26.527Z,98041.05
2023-01-09T02:49:29.741Z,98039.73
2023-01-09T02:52:35.512Z,98031.80
2023-01-09T02:55:57.206Z,98033.80
2023-01-09T02:59:38.408Z,98025.59
2023-01-09T03:03:27.750Z,98020.78
2023-01-09T03:07:08.159Z,98020.17
2023-01-09T03:11:00.698Z,98014.14
2023-01-09T03:14:11.627Z,98015.38
2023-01-09T03:17:22.927Z,98013.42
2023-01-09T03:20:27.944Z,98006.19
2023-01-09T03:24:05.943Z,98000.33
2023-01-09T03:27:09.523Z,97989.56
2023-01-09T03:30:12.924Z,97990.11
2023-01-09T03:33:15.673Z,97989.38
2023-01-09T03:36:20.833Z,97981.84
2023-01-09T03:39:23.601Z,97974.99
2023-01-09T03:42:26.483Z,97974.54
2023-01-09T03:45:29.443Z,97972.54
2023-01-09T03:48:33.068Z,97976.48
2023-01-09T03:51:35.770Z,97980.41
2023-01-09T03:54:39.441Z,97986.52
2023-01-09T03:57:42.420Z,97981.83
2023-01-09T04:00:46.753Z,97980.70
2023-01-09T04:03:49.623Z,97979.81
2023-01-09T04:06:52.374Z,97979.23
2023-01-09T04:09:55.071Z,97967.79
2023-01-09T04:12:57.897Z,97961.64
2023-01-09T04:16:00.947Z,97958.38
2023-01-09T04:19:03.790Z,97953.23
2023-01-09T04:22:06.503Z,97956.45
2023-01-09T04:25:09.565Z,97955.61
2023-01-09T04:28:12.425Z,97954.73
2023-01-09T04:31:15.341Z,97948.95
2023-01-09T04:34:18.586Z,97950.04
2023-01-09T04:37:22.908Z,97956.15
2023-01-09T04:40:25.785Z,97958.21
2023-01-09T04:43:28.558Z,97953.95
2023-01-09T04:46:31.431Z,97950.02
2023-01-09T04:49:34.521Z,97942.33
2023-01-09T04:52:39.008Z,97940.44
2023-01-09T04:55:43.040Z,97941.86
2023-01-09T04:58:45.751Z,97937.04
2023-01-09T05:01:48.580Z,97936.50
2023-01-09T05:04:51.673Z,97934.89
2023-01-09T05:07:54.633Z,97930.16
2023-01-09T05:10:57.417Z,97923.16
2023-01-09T05:14:00.213Z,97919.39
2023-01-09T05:17:02.930Z,97917.39
2023-01-09T05:20:06.366Z,97921.46
2023-01-09T05:23:09.338Z,97914.04
2023-01-09T05:26:12.086Z,97906.66
2023-01-09T05:29:14.791Z,97904.94
2023-01-09T05:32:19.703Z,97903.78
2023-01-09T05:35:23.215Z,97898.63
2023-01-09T05:38:26.081Z,97907.75
2023-01-09T05:41:28.867Z,97905.85
2023-01-09T05:44:31.570Z,97907.38
2023-01-09T05:47:34.409Z,97907.52
2023-01-09T05:50:37.384Z,97901.77
2023-01-09T05:53:41.072Z,97896.90
2023-01-09T05:56:43.859Z,97893.21
2023-01-09T05:59:46.736Z,97883.80
2023-01-09T06:02:49.558Z,97881.36
2023-01-09T06:05:52.395Z,97875.16
2023-01-09T06:08:55.370Z,97867.70
2023-01-09T06:11:58.562Z,97867.70
2023-01-09T06:15:01.532Z,97869.10
2023-01-09T06:18:04.814Z,97868.20
2023-01-09T06:21:07.702Z,97858.81
2023-01-09T06:24:10.678Z,97864.50
2023-01-09T06:27:13.658Z,97859.55
2023-01-09T06:30:16.828Z,97856.87
2023-01-09T06:33:20.177Z,97858.70
2023-01-09T06:36:23.219Z,97862.65
2023-01-09T06:39:26.016Z,97860.25
2023-01-09T06:42:30.910Z,97861.23
2023-01-09T06:45:34.079Z,97855.67
2023-01-09T06:48:37.026Z,97845.44
2023-01-09T06:51:39.963Z,97852.00
2023-01-09T06:54:42.751Z,97855.12
2023-01-09T06:57:45.622Z,97857.87
2023-01-09T07:00:49.711Z,97853.81
2023-01-09T07:03:52.724Z,97851.23
2023-01-09T07:06:55.501Z,97851.39
2023-01-09T07:09:58.221Z,97847.72
2023-01-09T07:13:01.322Z,97845.04
2023-01-09T07:16:05.601Z,97839.76
2023-01-09T07:19:08.465Z,97834.84
2023-01-09T07:22:11.499Z,97835.85
2023-01-09T07:25:14.302Z,97834.28
2023-01-09T07:28:17.089Z,97831.57
2023-01-09T07:31:19.912Z,97839.02
2023-01-09T07:34:22.909Z,97833.13
2023-01-09T07:37:25.917Z,97836.40
2023-01-09T07:40:28.697Z,97838.36
2023-01-09T07:43:31.503Z,97835.25
2023-01-09T07:46:34.402Z,97839.09
2023-01-09T07:49:37.402Z,97840.24
2023-01-09T07:52:40.210Z,97842.98
2023-01-09T07:55:43.813Z,97840.02
2023-01-09T07:58:46.760Z,97843.73
2023-01-09T08:01:49.627Z,97840.89
2023-01-09T08:04:52.565Z,97835.09
2023-01-09T08:07:55.276Z,97831.42
2023-01-09T08:10:58.147Z,97824.60
2023-01-09T08:14:00.906Z,97820.27
2023-01-09T08:17:03.740Z,97822.95
2023-01-09T08:20:06.983Z,97822.27
2023-01-09T08:23:09.833Z,97817.75
2023-01-09T08:26:12.778Z,97815.63
2023-01-09T08:29:16.833Z,97815.66
2023-01-09T08:32:19.638Z,97814.97
2023-01-09T08:35:22.596Z,97810.73
2023-01-09T08:38:25.409Z,97811.64
2023-01-09T08:41:46.980Z,97810.84
2023-01-09T08:45:08.481Z,97807.39
2023-01-09T08:48:11.864Z,97810.02
2023-01-09T08:51:15.171Z,97808.95
2023-01-09T08:54:17.888Z,97805.86
2023-01-09T08:57:20.630Z,97807.00
2023-01-09T09:00:25.259Z,97808.60
2023-01-09T09:03:28.153Z,97814.40
2023-01-09T09:06:32.538Z,97821.29
2023-01-09T09:09:35.271Z,97826.85
2023-01-09T09:12:38.030Z,97828.58
2023-01-09T09:15:40.977Z,97826.42
2023-01-09T09:18:43.937Z,97817.71
2023-01-09T09:21:46.911Z,97819.21
2023-01-09T09:24:49.679Z,97814.45
2023-01-09T09:27:53.386Z,97812.33
2023-01-09T09:30:56.395Z,97801.75
2023-01-09T09:33:59.182Z,97798.04
2023-01-09T09:37:02.110Z,97795.16
2023-01-09T09:40:17.870Z,97793.87
2023-01-09T09:43:52.902Z,97785.58
2023-01-09T09:46:55.633Z,97777.32
2023-01-09T09:50:16.745Z,97776.95
2023-01-09T09:53:30.608Z,97766.67
2023-01-09T09:56:40.679Z,97761.84
2023-01-09T09:59:44.682Z,97769.27
2023-01-09T10:02:53.695Z,97764.61
2023-01-09T10:06:00.501Z,97757.75
2023-01-09T10:09:20.691Z,97751.23
2023-01-09T10:12:30.738Z,97748.05
2023-01-09T10:15:50.246Z,97743.41
2023-01-09T10:18:58.918Z,97737.05
2023-01-09T10:22:01.594Z,97732.98
2023-01-09T10:25:29.631Z,97730.04
2023-01-09T10:28:41.400Z,97723.24
2023-01-09T10:32:11.914Z,97716.99
2023-01-09T10:35:47.304Z,97716.64
2023-01-09T10:38:56.022Z,97716.23
2023-01-09T10:42:06.518Z,97711.39
2023-01-09T10:45:28.742Z,97703.12
2023-01-09T10:48:37.589Z,97697.03
2023-01-09T10:51:48.989Z,97689.71
2023-01-09T10:54:56.913Z,97684.13
2023-01-09T10:58:04.527Z,97684.96
2023-01-09T11:01:07.907Z,97674.41
2023-01-09T11:04:22.938Z,97671.27
2023-01-09T11:07:31.788Z,97667.34
2023-01-09T11:10:55.410Z,97662.31
2023-01-09T11:14:18.579Z,97650.30
2023-01-09T11:17:26.983Z,97642.40
2023-01-09T11:20:30.270Z,97637.46
2023-01-09T11:23:33.647Z,97629.95
2023-01-09T11:26:36.495Z,97624.94
2023-01-09T11:29:40.455Z,97626.64
2023-01-09T11:32:47.359Z,97620.02
2023-01-09T11:35:56.110Z,97614.91
2023-01-09T11:39:01.203Z,97611.95
2023-01-09T11:42:07.045Z,97617.55
2023-01-09T11:45:32.418Z,97618.45
2023-01-09T11:48:57.219Z,97614.89
2023-01-09T11:52:20.573Z,97617.38
2023-01-09T11:55:27.254Z,97608.64
2023-01-09T11:58:35.295Z,97614.27
2023-01-09T12:02:00.339Z,97608.12
2023-01-09T12:05:12.184Z,97619.42
2023-01-09T12:08:33.169Z,97623.27
2023-01-09T12:12:01.534Z,97615.97
2023-01-09T12:15:47.080Z,97612.34
2023-01-09T12:19:05.831Z,97620.08
2023-01-09T12:22:36.848Z,97620.81
2023-01-09T12:26:16.004Z,97612.67
2023-01-09T12:29:38.059Z,97609.66
2023-01-09T12:32:53.827Z,97601.82
2023-01-09T12:36:29.453Z,97603.52
2023-01-09T12:39:57.512Z,97606.54
2023-01-09T12:43:07.340Z,97606.70
2023-01-09T12:46:23.197Z,97604.85
2023-01-09T12:49:37.699Z,97605.21
2023-01-09T12:52:56.391Z,97607.65
2023-01-09T12:56:03.284Z,97609.70
2023-01-09T12:59:45.158Z,97609.73
2023-01-09T13:03:03.784Z,97609.39
2023-01-09T13:06:16.255Z,97607.21
2023-01-09T13:09:37.663Z,97605.48
2023-01-09T13:12:44.071Z,97603.20
2023-01-09T13:15:53.148Z,97604.23
2023-01-09T13:19:13.150Z,97604.82
2023-01-09T13:22:18.182Z,97600.46
2023-01-09T13:26:04.810Z,97599.63
2023-01-09T13:29:10.323Z,97592.69
2023-01-09T13:32:21.114Z,97594.07
2023-01-09T13:35:24.298Z,97597.15
2023-01-09T13:38:30.617Z,97598.63
2023-01-09T13:41:52.262Z,97598.72
2023-01-09T13:45:08.751Z,97596.48
2023-01-09T13:48:12.134Z,97600.27
2023-01-09T13:51:42.901Z,97605.67
2023-01-09T13:54:52.033Z,97605.64
2023-01-09T13:58:04.482Z,97607.73
2023-01-09T14:01:34.573Z,97607.17
2023-01-09T14:04:43.100Z,97608.62
2023-01-09T14:07:49.543Z,97613.53
2023-01-09T14:11:04.107Z,97614.78
2023-01-09T14:14:24.295Z,97620.97
2023-01-09T14:17:35.430Z,97623.69
2023-01-09T14:20:42.326Z,97622.13
2023-01-09T14:23:59.234Z,97629.38
2023-01-09T14:27:04.044Z,97628.61
2023-01-09T14:30:26.185Z,97632.08
2023-01-09T14:33:30.951Z,97638.45
2023-01-09T14:36:35.608Z,97640.06
2023-01-09T14:39:43.525Z,97648.70
2023-01-09T14:42:53.322Z,97647.64
2023-01-09T14:46:03.741Z,97649.95
2023-01-09T14:49:22.388Z,97650.59
2023-01-09T14:52:30.399Z,97646.99
2023-01-09T14:55:44.059Z,97644.67
2023-01-09T14:58:46.895Z,97647.45
2023-01-09T15:01:55.458Z,97651.97
2023-01-09T15:05:06.069Z,97659.27
2023-01-09T15:08:17.242Z,97661.15
2023-01-09T15:11:20.204Z,97671.88
2023-01-09T15:14:40.428Z,97678.23
2023-01-09T15:17:46.557Z,97689.27
2023-01-09T15:20:57.944Z,97693.86
2023-01-09T15:24:28.783Z,97695.25
2023-01-09T15:27:31.797Z,97696.14
2023-01-09T15:30:36.398Z,97700.01
2023-01-09T15:33:41.017Z,97700.08
2023-01-09T15:36:44.031Z,97701.45
2023-01-09T15:39:47.958Z,97706.80
2023-01-09T15:42:58.125Z,97716.77
2023-01-09T15:46:01.642Z,97722.02
2023-01-09T15:49:04.649Z,97728.69
2023-01-09T15:52:12.122Z,97727.14
2023-01-09T15:55:35.073Z,97729.27
2023-01-09T15:58:49.763Z,97733.33
2023-01-09T16:02:24.486Z,97748.42
2023-01-09T16:05:31.478Z,97754.92
2023-01-09T16:08:42.519Z,97755.19
2023-01-09T16:11:55.496Z,97754.17
2023-01-09T16:15:00.366Z,97752.67
2023-01-09T16:18:06.229Z,97755.21
2023-01-09T16:21:11.914Z,97756.88
2023-01-09T16:24:14.741Z,97767.66
2023-01-09T16:27:17.622Z,97772.91
2023-01-09T16:30:26.802Z,97771.55
2023-01-09T16:33:31.462Z,97763.83
2023-01-09T16:36:35.966Z,97763.27
2023-01-09T16:39:38.806Z,97771.96
2023-01-09T16:43:00.379Z,97773.30
2023-01-09T16:46:03.254Z,97766.41
2023-01-09T16:49:24.736Z,97766.36
2023-01-09T16:52:27.608Z,97753.66
2023-01-09T16:55:30.385Z,97749.05
2023-01-09T16:58:36.338Z,97767.13
2023-01-09T17:01:39.198Z,97765.19
2023-01-09T17:04:42.023Z,97776.77
2023-01-09T17:07:44.866Z,97786.88
2023-01-09T17:10:48.150Z,97792.41
2023-01-09T17:13:51.237Z,97802.77
2023-01-09T17:16:54.135Z,97804.36
2023-01-09T17:19:56.932Z,97806.75
2023-01-09T17:22:59.880Z,97808.08
2023-01-09T17:26:22.122Z,97812.36
2023-01-09T17:29:25.581Z,97816.06
2023-01-09T17:32:30.684Z,97817.33
2023-01-09T17:35:33.473Z,97823.14
2023-01-09T17:38:36.363Z,97823.38
2023-01-09T17:41:39.223Z,97831.21
2023-01-09T17:44:41.995Z,97836.56
2023-01-09T17:47:47.030Z,97838.85
2023-01-09T17:50:49.841Z,97841.49
2023-01-09T17:53:52.896Z,97840.23
2023-01-09T17:56:55.833Z,97849.23
2023-01-09T17:59:59.168Z,97853.75
2023-01-09T18:03:04.067Z,97855.07
2023-01-09T18:06:09.490Z,97855.80
2023-01-09T18:09:17.503Z,97857.67
2023-01-09T18:12:20.591Z,97863.77
2023-01-09T18:15:24.608Z,97869.00
2023-01-09T18:18:28.642Z,97874.05
2023-01-09T18:21:31.417Z,97879.02
2023-01-09T18:24:34.449Z,97876.12
2023-01-09T18:27:37.516Z,97889.25
2023-01-09T18:30:40.514Z,97901.79
2023-01-09T18:33:46.181Z,97900.67
2023-01-09T18:36:49.085Z,97907.37
2023-01-09T18:39:52.120Z,97905.15
2023-01-09T18:42:56.333Z,97908.50
2023-01-09T18:45:59.371Z,97917.60
2023-01-09T18:49:04.307Z,97922.46
2023-01-09T18:52:07.822Z,97925.79
2023-01-09T18:55:10.861Z,97924.77
2023-01-09T18:58:13.695Z,97921.70
2023-01-09T19:01:17.053Z,97918.73
2023-01-09T19:04:20.293Z,97916.46
2023-01-09T19:07:23.346Z,97912.40
2023-01-09T19:10:26.238Z,97915.31
2023-01-09T19:13:31.027Z,97916.65
2023-01-09T19:16:33.882Z,97916.13
2023-01-09T19:19:36.897Z,97919.30
2023-01-09T19:22:39.790Z,97924.56
2023-01-09T19:25:43.027Z,97924.55
2023-01-09T19:28:46.867Z,97928.22
2023-01-09T19:31:49.953Z,97937.54
2023-01-09T19:34:52.928Z,97933.52
2023-01-09T19:37:55.804Z,97936.48
2023-01-09T19:41:09.215Z,97941.42
2023-01-09T19:44:12.109Z,97947.60
2023-01-09T19:47:14.830Z,97957.57
2023-01-09T19:50:18.783Z,97964.17
2023-01-09T19:53:21.498Z,97957.42
2023-01-09T19:56:27.344Z,97956.71
2023-01-09T19:59:30.686Z,97957.40
2023-01-09T20:02:33.424Z,97958.54
2023-01-09T20:05:36.294Z,97959.09
2023-01-09T20:08:39.871Z,97967.16
2023-01-09T20:11:44.900Z,97971.81
2023-01-09T20:14:47.825Z,97980.20
2023-01-09T20:17:50.580Z,97983.79
2023-01-09T20:20:53.669Z,97989.56
2023-01-09T20:23:58.814Z,97989.91
2023-01-09T20:27:01.912Z,97995.68
2023-01-09T20:30:05.630Z,98005.67
2023-01-09T20:33:08.587Z,98015.73
2023-01-09T20:36:12.878Z,98023.64
2023-01-09T20:39:15.825Z,98028.14
2023-01-09T20:42:18.558Z,98037.53
2023-01-09T20:45:21.270Z,98039.09
2023-01-09T20:48:24.001Z,98043.11
2023-01-09T20:51:27.748Z,98042.66
2023-01-09T20:54:30.508Z,98048.75
2023-01-09T20:57:33.362Z,98047.27
2023-01-09T21:00:36.337Z,98048.29
2023-01-09T21:03:40.538Z,98047.70
2023-01-09T21:06:43.446Z,98055.07
2023-01-09T21:09:46.599Z,98056.05
2023-01-09T21:12:52.358Z,98060.86
2023-01-09T21:16:01.247Z,98065.75
2023-01-09T21:19:04.353Z,98073.88
2023-01-09T21:22:07.230Z,98082.12
2023-01-09T21:25:10.397Z,98088.48
2023-01-09T21:28:18.610Z,98086.76
2023-01-09T21:31:26.651Z,98091.77
2023-01-09T21:34:29.597Z,98092.70
2023-01-09T21:37:34.526Z,98095.38
2023-01-09T21:40:37.318Z,98105.04
2023-01-09T21:43:58.906Z,98107.73
2023-01-09T21:47:03.377Z,98113.58
2023-01-09T21:50:07.573Z,98123.03
2023-01-09T21:53:10.500Z,98128.83
2023-01-09T21:56:13.276Z,98131.30
2023-01-09T21:59:17.184Z,98136.58
2023-01-09T22:02:20.058Z,98144.11
2023-01-09T22:05:24.765Z,98148.85
2023-01-09T22:08:29.696Z,98155.77
2023-01-09T22:11:32.615Z,98158.95
2023-01-09T22:14:35.611Z,98151.92
2023-01-09T22:17:38.469Z,98150.82
2023-01-09T22:20:41.193Z,98151.17
2023-01-09T22:23:44.095Z,98153.40
2023-01-09T22:26:47.560Z,98149.96
2023-01-09T22:29:50.353Z,98151.66
2023-01-09T22:32:53.074Z,98151.81
2023-01-09T22:35:55.944Z,98153.36
2023-01-09T22:39:03.503Z,98156.80
2023-01-09T22:42:06.403Z,98162.00
2023-01-09T22:45:09.769Z,98156.26
2023-01-09T22:48:12.652Z,98156.14
2023-01-09T22:51:18.461Z,98155.31
2023-01-09T22:54:21.221Z,98160.75
2023-01-09T22:57:24.456Z,98165.83
2023-01-09T23:00:27.300Z,98169.75
2023-01-09T23:03:30.213Z,98171.14
2023-01-09T23:06:33.030Z,98182.04
2023-01-09T23:09:35.794Z,98182.26
2023-01-09T23:12:46.825Z,98185.77
2023-01-09T23:15:50.052Z,98188.60
2023-01-09T23:18:52.996Z,98192.29
2023-01-09T23:21:55.783Z,98192.96
2023-01-09T23:24:58.557Z,98196.45
2023-01-09T23:28:01.832Z,98195.50
2023-01-09T23:31:04.675Z,98199.36
2023-01-09T23:34:08.512Z,98203.69
2023-01-09T23:37:11.624Z,98207.89
2023-01-09T23:40:14.529Z,98218.83
2023-01-09T23:43:17.282Z,98218.43
2023-01-09T23:46:20.069Z,98226.80
2023-01-09T23:49:23.199Z,98232.83
2023-01-09T23:52:26.072Z,98232.10
2023-01-09T23:55:29.193Z,98232.36
2023-01-09T23:58:32.132Z,98240.13
